sensor_id;sensor_type;location;lat;lon;timestamp;temperature;humidity
9699;DHT22;10089;47.876;8.346;2023-07-22T00:02:16;12.40;99.90
9699;DHT22;10089;47.876;8.346;2023-07-22T00:04:42;12.40;99.90
9699;DHT22;10089;47.876;8.346;2023-07-22T00:07:08;12.40;99.90
9699;DHT22;10089;47.876;8.346;2023-07-22T00:09:33;12.40;99.90
9699;DHT22;10089;47.876;8.346;2023-07-22T00:11:59;12.30;99.90
9699;DHT22;10089;47.876;8.346;2023-07-22T00:14:25;12.30;99.90
9699;DHT22;10089;47.876;8.346;2023-07-22T00:16:51;12.40;99.90
9699;DHT22;10089;47.876;8.346;2023-07-22T00:19:17;12.50;95.20
9699;DHT22;10089;47.876;8.346;2023-07-22T00:21:42;12.60;76.00
9699;DHT22;10089;47.876;8.346;2023-07-22T00:24:08;12.60;30.80
9699;DHT22;10089;47.876;8.346;2023-07-22T00:26:34;12.40;57.10
9699;DHT22;10089;47.876;8.346;2023-07-22T00:28:59;12.20;53.30
9699;DHT22;10089;47.876;8.346;2023-07-22T00:31:25;12.10;99.90
9699;DHT22;10089;47.876;8.346;2023-07-22T00:33:50;12.00;99.90
9699;DHT22;10089;47.876;8.346;2023-07-22T00:36:16;12.00;99.90
9699;DHT22;10089;47.876;8.346;2023-07-22T00:38:42;12.10;99.90
9699;DHT22;10089;47.876;8.346;2023-07-22T00:41:08;12.10;99.90
9699;DHT22;10089;47.876;8.346;2023-07-22T00:43:34;12.10;99.90
9699;DHT22;10089;47.876;8.346;2023-07-22T00:45:59;12.00;99.90
9699;DHT22;10089;47.876;8.346;2023-07-22T00:48:25;11.90;99.90
9699;DHT22;10089;47.876;8.346;2023-07-22T00:50:52;11.90;99.90
9699;DHT22;10089;47.876;8.346;2023-07-22T00:53:18;11.80;99.90
9699;DHT22;10089;47.876;8.346;2023-07-22T00:55:44;11.70;99.90
9699;DHT22;10089;47.876;8.346;2023-07-22T00:58:10;11.60;99.90
9699;DHT22;10089;47.876;8.346;2023-07-22T01:00:37;11.60;99.90
9699;DHT22;10089;47.876;8.346;2023-07-22T01:03:03;11.60;99.90
9699;DHT22;10089;47.876;8.346;2023-07-22T01:05:30;11.60;99.90
9699;DHT22;10089;47.876;8.346;2023-07-22T01:07:56;11.60;99.90
9699;DHT22;10089;47.876;8.346;2023-07-22T01:10:22;11.60;99.90
9699;DHT22;10089;47.876;8.346;2023-07-22T01:12:48;11.50;99.90
9699;DHT22;10089;47.876;8.346;2023-07-22T01:15:14;11.50;99.90
9699;DHT22;10089;47.876;8.346;2023-07-22T01:17:40;11.50;99.90
9699;DHT22;10089;47.876;8.346;2023-07-22T01:20:06;11.40;99.90
9699;DHT22;10089;47.876;8.346;2023-07-22T01:22:33;11.40;99.90
9699;DHT22;10089;47.876;8.346;2023-07-22T01:25:00;11.40;99.90
9699;DHT22;10089;47.876;8.346;2023-07-22T01:27:26;11.40;99.90
9699;DHT22;10089;47.876;8.346;2023-07-22T01:29:54;11.40;99.90
9699;DHT22;10089;47.876;8.346;2023-07-22T01:32:19;11.30;99.90
9699;DHT22;10089;47.876;8.346;2023-07-22T01:34:47;11.30;99.90
9699;DHT22;10089;47.876;8.346;2023-07-22T01:37:14;11.20;99.90
9699;DHT22;10089;47.876;8.346;2023-07-22T01:39:40;11.20;99.90
9699;DHT22;10089;47.876;8.346;2023-07-22T01:42:05;11.20;99.90
9699;DHT22;10089;47.876;8.346;2023-07-22T01:44:31;11.20;99.90
9699;DHT22;10089;47.876;8.346;2023-07-22T01:46:57;11.30;99.90
9699;DHT22;10089;47.876;8.346;2023-07-22T01:49:22;11.30;99.90
9699;DHT22;10089;47.876;8.346;2023-07-22T01:51:50;11.40;99.90
9699;DHT22;10089;47.876;8.346;2023-07-22T01:54:15;11.40;99.90
9699;DHT22;10089;47.876;8.346;2023-07-22T01:56:41;11.40;99.90
9699;DHT22;10089;47.876;8.346;2023-07-22T01:59:06;11.40;99.90
9699;DHT22;10089;47.876;8.346;2023-07-22T02:01:33;11.60;99.90
9699;DHT22;10089;47.876;8.346;2023-07-22T02:03:58;11.60;99.90
9699;DHT22;10089;47.876;8.346;2023-07-22T02:06:24;11.50;99.90
9699;DHT22;10089;47.876;8.346;2023-07-22T02:08:50;11.50;99.90
9699;DHT22;10089;47.876;8.346;2023-07-22T02:11:16;11.50;99.90
9699;DHT22;10089;47.876;8.346;2023-07-22T02:13:42;11.50;99.90
9699;DHT22;10089;47.876;8.346;2023-07-22T02:16:07;11.50;99.90
9699;DHT22;10089;47.876;8.346;2023-07-22T02:18:37;11.60;99.90
9699;DHT22;10089;47.876;8.346;2023-07-22T02:21:02;11.60;99.90
9699;DHT22;10089;47.876;8.346;2023-07-22T02:23:28;11.60;99.90
9699;DHT22;10089;47.876;8.346;2023-07-22T02:25:54;11.60;99.90
9699;DHT22;10089;47.876;8.346;2023-07-22T02:28:20;11.60;99.90
9699;DHT22;10089;47.876;8.346;2023-07-22T02:30:53;11.50;99.90
9699;DHT22;10089;47.876;8.346;2023-07-22T02:33:22;11.40;99.90
9699;DHT22;10089;47.876;8.346;2023-07-22T02:35:48;11.40;99.90
9699;DHT22;10089;47.876;8.346;2023-07-22T02:38:14;11.40;99.90
9699;DHT22;10089;47.876;8.346;2023-07-22T02:40:40;11.40;99.90
9699;DHT22;10089;47.876;8.346;2023-07-22T02:43:06;11.30;99.90
9699;DHT22;10089;47.876;8.346;2023-07-22T02:45:33;11.40;99.90
9699;DHT22;10089;47.876;8.346;2023-07-22T02:47:58;11.50;96.40
9699;DHT22;10089;47.876;8.346;2023-07-22T02:50:26;11.40;91.50
9699;DHT22;10089;47.876;8.346;2023-07-22T02:52:51;11.20;99.90
9699;DHT22;10089;47.876;8.346;2023-07-22T02:55:17;11.10;99.90
9699;DHT22;10089;47.876;8.346;2023-07-22T02:57:47;11.00;99.90
9699;DHT22;10089;47.876;8.346;2023-07-22T03:00:14;11.00;99.90
9699;DHT22;10089;47.876;8.346;2023-07-22T03:02:45;10.90;99.90
9699;DHT22;10089;47.876;8.346;2023-07-22T03:05:11;10.80;99.90
9699;DHT22;10089;47.876;8.346;2023-07-22T03:07:38;10.90;99.90
9699;DHT22;10089;47.876;8.346;2023-07-22T03:10:05;10.90;99.90
9699;DHT22;10089;47.876;8.346;2023-07-22T03:12:33;10.90;99.90
9699;DHT22;10089;47.876;8.346;2023-07-22T03:14:58;10.90;99.90
9699;DHT22;10089;47.876;8.346;2023-07-22T03:17:24;10.80;99.90
9699;DHT22;10089;47.876;8.346;2023-07-22T03:19:50;10.90;99.90
9699;DHT22;10089;47.876;8.346;2023-07-22T03:22:18;10.90;99.90
9699;DHT22;10089;47.876;8.346;2023-07-22T03:24:44;10.90;99.90
9699;DHT22;10089;47.876;8.346;2023-07-22T03:27:11;10.80;99.90
9699;DHT22;10089;47.876;8.346;2023-07-22T03:29:37;10.80;99.90
9699;DHT22;10089;47.876;8.346;2023-07-22T03:32:03;10.70;99.90
9699;DHT22;10089;47.876;8.346;2023-07-22T03:34:29;10.80;99.90
9699;DHT22;10089;47.876;8.346;2023-07-22T03:36:55;10.70;99.90
9699;DHT22;10089;47.876;8.346;2023-07-22T03:39:21;10.70;99.90
9699;DHT22;10089;47.876;8.346;2023-07-22T03:41:46;10.60;99.90
9699;DHT22;10089;47.876;8.346;2023-07-22T03:44:12;10.70;99.90
9699;DHT22;10089;47.876;8.346;2023-07-22T03:46:38;10.70;99.90
9699;DHT22;10089;47.876;8.346;2023-07-22T03:49:04;10.70;99.90
9699;DHT22;10089;47.876;8.346;2023-07-22T03:51:29;10.60;99.90
9699;DHT22;10089;47.876;8.346;2023-07-22T03:53:55;11.20;99.90
9699;DHT22;10089;47.876;8.346;2023-07-22T03:56:21;10.60;99.90
9699;DHT22;10089;47.876;8.346;2023-07-22T03:58:49;10.60;99.90
9699;DHT22;10089;47.876;8.346;2023-07-22T04:01:14;10.60;99.90
9699;DHT22;10089;47.876;8.346;2023-07-22T04:03:40;10.70;99.90
9699;DHT22;10089;47.876;8.346;2023-07-22T04:06:05;10.70;99.90
9699;DHT22;10089;47.876;8.346;2023-07-22T04:08:31;10.70;99.90
9699;DHT22;10089;47.876;8.346;2023-07-22T04:10:57;10.70;99.90
9699;DHT22;10089;47.876;8.346;2023-07-22T04:13:24;10.70;99.90
9699;DHT22;10089;47.876;8.346;2023-07-22T04:15:50;10.60;99.90
9699;DHT22;10089;47.876;8.346;2023-07-22T04:18:16;10.70;99.90
9699;DHT22;10089;47.876;8.346;2023-07-22T04:20:42;10.80;99.90
9699;DHT22;10089;47.876;8.346;2023-07-22T04:23:08;10.80;99.90
9699;DHT22;10089;47.876;8.346;2023-07-22T04:25:39;10.80;99.90
9699;DHT22;10089;47.876;8.346;2023-07-22T04:28:04;10.80;99.90
9699;DHT22;10089;47.876;8.346;2023-07-22T04:30:30;10.80;99.90
9699;DHT22;10089;47.876;8.346;2023-07-22T04:32:56;10.80;99.90
9699;DHT22;10089;47.876;8.346;2023-07-22T04:35:21;10.80;99.90
9699;DHT22;10089;47.876;8.346;2023-07-22T04:37:47;10.90;99.90
9699;DHT22;10089;47.876;8.346;2023-07-22T04:40:13;10.90;99.90
9699;DHT22;10089;47.876;8.346;2023-07-22T04:42:44;11.00;99.90
9699;DHT22;10089;47.876;8.346;2023-07-22T04:45:10;11.00;99.90
9699;DHT22;10089;47.876;8.346;2023-07-22T04:47:37;11.00;99.90
9699;DHT22;10089;47.876;8.346;2023-07-22T04:50:05;11.10;99.90
9699;DHT22;10089;47.876;8.346;2023-07-22T04:52:37;11.20;99.90
9699;DHT22;10089;47.876;8.346;2023-07-22T04:55:03;11.30;99.90
9699;DHT22;10089;47.876;8.346;2023-07-22T04:57:42;11.30;99.90
9699;DHT22;10089;47.876;8.346;2023-07-22T05:00:11;11.40;99.90
9699;DHT22;10089;47.876;8.346;2023-07-22T05:02:40;11.40;99.90
9699;DHT22;10089;47.876;8.346;2023-07-22T05:05:06;11.50;99.90
9699;DHT22;10089;47.876;8.346;2023-07-22T05:07:32;11.50;99.90
9699;DHT22;10089;47.876;8.346;2023-07-22T05:09:57;11.50;99.90
9699;DHT22;10089;47.876;8.346;2023-07-22T05:12:24;11.60;99.90
9699;DHT22;10089;47.876;8.346;2023-07-22T05:14:50;11.70;99.90
9699;DHT22;10089;47.876;8.346;2023-07-22T05:17:15;12.00;99.90
9699;DHT22;10089;47.876;8.346;2023-07-22T05:19:41;12.50;99.90
9699;DHT22;10089;47.876;8.346;2023-07-22T05:22:07;13.00;81.80
9699;DHT22;10089;47.876;8.346;2023-07-22T05:24:33;13.50;1.00
9699;DHT22;10089;47.876;8.346;2023-07-22T05:26:58;14.00;1.00
9699;DHT22;10089;47.876;8.346;2023-07-22T05:29:24;14.50;1.00
9699;DHT22;10089;47.876;8.346;2023-07-22T05:31:49;14.80;99.90
9699;DHT22;10089;47.876;8.346;2023-07-22T05:34:15;15.00;99.90
9699;DHT22;10089;47.876;8.346;2023-07-22T05:36:41;15.40;1.00
9699;DHT22;10089;47.876;8.346;2023-07-22T05:39:06;15.70;99.90
9699;DHT22;10089;47.876;8.346;2023-07-22T05:41:35;15.80;1.00
9699;DHT22;10089;47.876;8.346;2023-07-22T05:44:01;16.20;1.00
9699;DHT22;10089;47.876;8.346;2023-07-22T05:46:26;16.60;1.00
9699;DHT22;10089;47.876;8.346;2023-07-22T05:48:52;16.90;1.00
9699;DHT22;10089;47.876;8.346;2023-07-22T05:51:18;17.10;1.00
9699;DHT22;10089;47.876;8.346;2023-07-22T05:53:44;18.70;1.00
9699;DHT22;10089;47.876;8.346;2023-07-22T05:56:10;17.60;99.90
9699;DHT22;10089;47.876;8.346;2023-07-22T05:58:36;17.90;1.00
9699;DHT22;10089;47.876;8.346;2023-07-22T06:01:01;18.10;1.00
9699;DHT22;10089;47.876;8.346;2023-07-22T06:03:27;18.70;86.60
9699;DHT22;10089;47.876;8.346;2023-07-22T06:05:53;18.50;99.90
9699;DHT22;10089;47.876;8.346;2023-07-22T06:08:19;18.80;68.50
9699;DHT22;10089;47.876;8.346;2023-07-22T06:10:45;19.10;1.00
9699;DHT22;10089;47.876;8.346;2023-07-22T06:13:10;19.20;1.00
9699;DHT22;10089;47.876;8.346;2023-07-22T06:15:36;19.30;1.00
9699;DHT22;10089;47.876;8.346;2023-07-22T06:18:02;19.30;99.90
9699;DHT22;10089;47.876;8.346;2023-07-22T06:20:28;19.50;99.90
9699;DHT22;10089;47.876;8.346;2023-07-22T06:22:54;19.70;99.90
9699;DHT22;10089;47.876;8.346;2023-07-22T06:25:20;19.70;59.00
9699;DHT22;10089;47.876;8.346;2023-07-22T06:27:45;19.90;1.00
9699;DHT22;10089;47.876;8.346;2023-07-22T06:30:13;19.90;1.00
9699;DHT22;10089;47.876;8.346;2023-07-22T06:32:39;20.20;1.00
9699;DHT22;10089;47.876;8.346;2023-07-22T06:35:05;20.20;1.00
9699;DHT22;10089;47.876;8.346;2023-07-22T06:37:31;20.40;1.00
9699;DHT22;10089;47.876;8.346;2023-07-22T06:39:57;19.50;1.00
9699;DHT22;10089;47.876;8.346;2023-07-22T06:42:22;20.00;1.00
9699;DHT22;10089;47.876;8.346;2023-07-22T06:44:48;20.60;1.00
9699;DHT22;10089;47.876;8.346;2023-07-22T06:47:14;21.00;1.00
9699;DHT22;10089;47.876;8.346;2023-07-22T06:49:40;20.30;1.00
9699;DHT22;10089;47.876;8.346;2023-07-22T06:52:06;20.80;1.00
9699;DHT22;10089;47.876;8.346;2023-07-22T06:54:33;21.40;1.00
9699;DHT22;10089;47.876;8.346;2023-07-22T06:56:59;21.40;99.90
9699;DHT22;10089;47.876;8.346;2023-07-22T06:59:25;19.80;99.90
9699;DHT22;10089;47.876;8.346;2023-07-22T07:01:52;19.60;99.90
9699;DHT22;10089;47.876;8.346;2023-07-22T07:04:17;19.90;99.90
9699;DHT22;10089;47.876;8.346;2023-07-22T07:06:58;19.60;99.90
9699;DHT22;10089;47.876;8.346;2023-07-22T07:09:45;19.90;99.90
9699;DHT22;10089;47.876;8.346;2023-07-22T07:12:13;19.60;99.90
9699;DHT22;10089;47.876;8.346;2023-07-22T07:14:54;20.30;99.90
9699;DHT22;10089;47.876;8.346;2023-07-22T07:17:32;20.10;99.90
9699;DHT22;10089;47.876;8.346;2023-07-22T07:19:57;20.80;99.90
9699;DHT22;10089;47.876;8.346;2023-07-22T07:22:23;20.60;99.90
9699;DHT22;10089;47.876;8.346;2023-07-22T07:24:48;21.00;99.90
9699;DHT22;10089;47.876;8.346;2023-07-22T07:27:14;21.20;99.90
9699;DHT22;10089;47.876;8.346;2023-07-22T07:29:40;21.40;99.90
9699;DHT22;10089;47.876;8.346;2023-07-22T07:32:07;21.60;99.90
9699;DHT22;10089;47.876;8.346;2023-07-22T07:34:32;20.00;99.90
9699;DHT22;10089;47.876;8.346;2023-07-22T07:36:58;21.00;99.90
9699;DHT22;10089;47.876;8.346;2023-07-22T07:39:24;20.90;99.90
9699;DHT22;10089;47.876;8.346;2023-07-22T07:41:50;21.40;99.90
9699;DHT22;10089;47.876;8.346;2023-07-22T07:44:16;21.00;99.90
9699;DHT22;10089;47.876;8.346;2023-07-22T07:46:42;21.00;99.90
9699;DHT22;10089;47.876;8.346;2023-07-22T07:49:08;21.60;99.90
9699;DHT22;10089;47.876;8.346;2023-07-22T07:51:36;21.60;99.90
9699;DHT22;10089;47.876;8.346;2023-07-22T07:54:01;21.80;99.90
9699;DHT22;10089;47.876;8.346;2023-07-22T07:56:29;21.70;99.90
9699;DHT22;10089;47.876;8.346;2023-07-22T07:58:56;21.50;99.90
9699;DHT22;10089;47.876;8.346;2023-07-22T08:01:21;20.80;99.90
9699;DHT22;10089;47.876;8.346;2023-07-22T08:03:47;21.30;99.90
9699;DHT22;10089;47.876;8.346;2023-07-22T08:06:13;21.70;99.90
9699;DHT22;10089;47.876;8.346;2023-07-22T08:08:39;21.90;99.90
9699;DHT22;10089;47.876;8.346;2023-07-22T08:11:10;22.20;99.90
9699;DHT22;10089;47.876;8.346;2023-07-22T08:13:37;22.30;99.90
9699;DHT22;10089;47.876;8.346;2023-07-22T08:16:04;22.50;99.90
9699;DHT22;10089;47.876;8.346;2023-07-22T08:18:30;21.90;99.90
9699;DHT22;10089;47.876;8.346;2023-07-22T08:20:57;22.10;99.90
9699;DHT22;10089;47.876;8.346;2023-07-22T08:23:23;21.70;99.90
9699;DHT22;10089;47.876;8.346;2023-07-22T08:25:48;21.00;99.90
9699;DHT22;10089;47.876;8.346;2023-07-22T08:28:14;20.90;99.90
9699;DHT22;10089;47.876;8.346;2023-07-22T08:30:40;20.50;99.90
9699;DHT22;10089;47.876;8.346;2023-07-22T08:33:13;19.40;99.90
9699;DHT22;10089;47.876;8.346;2023-07-22T08:35:40;20.00;99.90
9699;DHT22;10089;47.876;8.346;2023-07-22T08:38:06;19.70;99.90
9699;DHT22;10089;47.876;8.346;2023-07-22T08:40:36;20.20;99.90
9699;DHT22;10089;47.876;8.346;2023-07-22T08:43:03;20.10;99.90
9699;DHT22;10089;47.876;8.346;2023-07-22T08:45:31;20.20;99.90
9699;DHT22;10089;47.876;8.346;2023-07-22T08:48:04;20.80;99.90
9699;DHT22;10089;47.876;8.346;2023-07-22T08:53:19;22.10;99.90
9699;DHT22;10089;47.876;8.346;2023-07-22T08:55:47;21.80;99.90
9699;DHT22;10089;47.876;8.346;2023-07-22T08:58:15;21.70;99.90
9699;DHT22;10089;47.876;8.346;2023-07-22T09:00:42;21.30;99.90
9699;DHT22;10089;47.876;8.346;2023-07-22T09:03:09;21.80;99.90
9699;DHT22;10089;47.876;8.346;2023-07-22T09:05:36;22.30;99.90
9699;DHT22;10089;47.876;8.346;2023-07-22T09:08:03;22.70;99.90
9699;DHT22;10089;47.876;8.346;2023-07-22T09:10:30;22.00;99.90
9699;DHT22;10089;47.876;8.346;2023-07-22T09:12:56;22.10;99.90
9699;DHT22;10089;47.876;8.346;2023-07-22T09:15:22;21.50;99.90
9699;DHT22;10089;47.876;8.346;2023-07-22T09:17:49;21.80;99.90
9699;DHT22;10089;47.876;8.346;2023-07-22T09:20:15;21.90;99.80
9699;DHT22;10089;47.876;8.346;2023-07-22T09:22:45;21.80;99.90
9699;DHT22;10089;47.876;8.346;2023-07-22T09:25:24;22.60;98.90
9699;DHT22;10089;47.876;8.346;2023-07-22T09:27:52;23.20;84.60
9699;DHT22;10089;47.876;8.346;2023-07-22T09:30:27;23.70;67.30
9699;DHT22;10089;47.876;8.346;2023-07-22T09:32:56;23.40;44.00
9699;DHT22;10089;47.876;8.346;2023-07-22T09:35:23;22.50;50.40
9699;DHT22;10089;47.876;8.346;2023-07-22T09:37:49;23.10;68.90
9699;DHT22;10089;47.876;8.346;2023-07-22T09:40:25;23.70;29.30
9699;DHT22;10089;47.876;8.346;2023-07-22T09:42:53;22.90;21.90
9699;DHT22;10089;47.876;8.346;2023-07-22T09:45:22;23.00;14.10
9699;DHT22;10089;47.876;8.346;2023-07-22T09:47:49;22.70;26.10
9699;DHT22;10089;47.876;8.346;2023-07-22T09:50:17;23.50;22.60
9699;DHT22;10089;47.876;8.346;2023-07-22T09:52:45;23.50;26.30
9699;DHT22;10089;47.876;8.346;2023-07-22T09:55:11;24.10;19.90
9699;DHT22;10089;47.876;8.346;2023-07-22T09:57:43;24.30;17.90
9699;DHT22;10089;47.876;8.346;2023-07-22T10:00:14;24.50;21.50
9699;DHT22;10089;47.876;8.346;2023-07-22T10:02:42;24.30;1.00
9699;DHT22;10089;47.876;8.346;2023-07-22T10:05:12;24.60;10.30
9699;DHT22;10089;47.876;8.346;2023-07-22T10:07:51;23.70;12.50
9699;DHT22;10089;47.876;8.346;2023-07-22T10:10:23;23.20;19.20
9699;DHT22;10089;47.876;8.346;2023-07-22T10:12:49;23.30;27.00
9699;DHT22;10089;47.876;8.346;2023-07-22T10:15:15;23.90;20.90
9699;DHT22;10089;47.876;8.346;2023-07-22T10:17:43;24.10;21.30
9699;DHT22;10089;47.876;8.346;2023-07-22T10:20:10;24.20;8.80
9699;DHT22;10089;47.876;8.346;2023-07-22T10:22:42;23.80;12.80
9699;DHT22;10089;47.876;8.346;2023-07-22T10:25:09;23.70;6.30
9699;DHT22;10089;47.876;8.346;2023-07-22T10:27:35;23.70;2.10
9699;DHT22;10089;47.876;8.346;2023-07-22T10:30:02;24.30;6.10
9699;DHT22;10089;47.876;8.346;2023-07-22T10:32:45;23.80;1.00
9699;DHT22;10089;47.876;8.346;2023-07-22T10:35:16;24.00;1.00
9699;DHT22;10089;47.876;8.346;2023-07-22T10:37:45;23.80;1.80
9699;DHT22;10089;47.876;8.346;2023-07-22T10:40:26;23.70;1.00
9699;DHT22;10089;47.876;8.346;2023-07-22T10:43:03;22.80;1.00
9699;DHT22;10089;47.876;8.346;2023-07-22T10:45:33;23.30;3.00
9699;DHT22;10089;47.876;8.346;2023-07-22T10:48:12;23.00;1.00
9699;DHT22;10089;47.876;8.346;2023-07-22T10:50:42;23.20;1.00
9699;DHT22;10089;47.876;8.346;2023-07-22T10:53:37;23.60;1.00
9699;DHT22;10089;47.876;8.346;2023-07-22T11:04:23;24.20;1.00
9699;DHT22;10089;47.876;8.346;2023-07-22T11:07:00;24.60;1.00
9699;DHT22;10089;47.876;8.346;2023-07-22T11:16:59;22.20;1.00
9699;DHT22;10089;47.876;8.346;2023-07-22T11:19:26;22.50;1.00
9699;DHT22;10089;47.876;8.346;2023-07-22T11:21:54;22.60;1.00
9699;DHT22;10089;47.876;8.346;2023-07-22T11:24:21;22.70;1.00
9699;DHT22;10089;47.876;8.346;2023-07-22T11:26:48;22.70;1.00
9699;DHT22;10089;47.876;8.346;2023-07-22T11:29:14;23.10;1.00
9699;DHT22;10089;47.876;8.346;2023-07-22T11:31:43;23.20;1.00
9699;DHT22;10089;47.876;8.346;2023-07-22T11:34:14;23.60;1.00
9699;DHT22;10089;47.876;8.346;2023-07-22T11:36:41;23.90;1.00
9699;DHT22;10089;47.876;8.346;2023-07-22T11:39:08;23.50;1.00
9699;DHT22;10089;47.876;8.346;2023-07-22T11:41:35;23.50;1.00
9699;DHT22;10089;47.876;8.346;2023-07-22T11:44:02;23.60;1.00
9699;DHT22;10089;47.876;8.346;2023-07-22T11:46:32;23.80;1.00
9699;DHT22;10089;47.876;8.346;2023-07-22T11:48:59;23.40;1.00
9699;DHT22;10089;47.876;8.346;2023-07-22T11:51:25;23.40;1.00
9699;DHT22;10089;47.876;8.346;2023-07-22T11:53:52;23.50;1.00
9699;DHT22;10089;47.876;8.346;2023-07-22T11:56:22;23.20;1.00
9699;DHT22;10089;47.876;8.346;2023-07-22T11:58:50;23.50;1.00
9699;DHT22;10089;47.876;8.346;2023-07-22T12:01:16;23.50;1.00
9699;DHT22;10089;47.876;8.346;2023-07-22T12:03:41;23.40;1.00
9699;DHT22;10089;47.876;8.346;2023-07-22T12:06:07;23.40;1.00
9699;DHT22;10089;47.876;8.346;2023-07-22T12:08:33;23.50;1.00
9699;DHT22;10089;47.876;8.346;2023-07-22T12:11:00;23.70;1.00
9699;DHT22;10089;47.876;8.346;2023-07-22T12:13:25;24.30;1.00
9699;DHT22;10089;47.876;8.346;2023-07-22T12:16:05;24.00;1.00
9699;DHT22;10089;47.876;8.346;2023-07-22T12:18:43;24.50;1.00
9699;DHT22;10089;47.876;8.346;2023-07-22T12:21:09;24.40;1.00
9699;DHT22;10089;47.876;8.346;2023-07-22T12:23:36;24.60;1.00
9699;DHT22;10089;47.876;8.346;2023-07-22T12:26:03;24.50;1.00
9699;DHT22;10089;47.876;8.346;2023-07-22T12:28:29;24.80;1.00
9699;DHT22;10089;47.876;8.346;2023-07-22T12:30:54;24.70;1.00
9699;DHT22;10089;47.876;8.346;2023-07-22T12:33:25;24.90;1.00
9699;DHT22;10089;47.876;8.346;2023-07-22T12:35:53;25.20;1.00
9699;DHT22;10089;47.876;8.346;2023-07-22T12:38:19;24.60;1.00
9699;DHT22;10089;47.876;8.346;2023-07-22T12:40:45;24.30;1.00
9699;DHT22;10089;47.876;8.346;2023-07-22T12:43:11;24.30;1.00
9699;DHT22;10089;47.876;8.346;2023-07-22T12:45:36;24.60;1.00
9699;DHT22;10089;47.876;8.346;2023-07-22T12:48:02;24.50;1.00
9699;DHT22;10089;47.876;8.346;2023-07-22T12:50:29;24.70;1.00
9699;DHT22;10089;47.876;8.346;2023-07-22T12:52:55;24.60;1.00
9699;DHT22;10089;47.876;8.346;2023-07-22T12:55:21;25.00;1.00
9699;DHT22;10089;47.876;8.346;2023-07-22T12:57:46;24.60;1.00
9699;DHT22;10089;47.876;8.346;2023-07-22T13:00:12;24.10;1.00
9699;DHT22;10089;47.876;8.346;2023-07-22T13:02:38;24.20;1.00
9699;DHT22;10089;47.876;8.346;2023-07-22T13:05:04;24.50;1.00
9699;DHT22;10089;47.876;8.346;2023-07-22T13:07:31;24.50;1.00
9699;DHT22;10089;47.876;8.346;2023-07-22T13:09:57;24.50;1.00
9699;DHT22;10089;47.876;8.346;2023-07-22T13:12:28;24.50;1.00
9699;DHT22;10089;47.876;8.346;2023-07-22T13:14:53;24.60;1.00
9699;DHT22;10089;47.876;8.346;2023-07-22T13:17:19;24.60;1.00
9699;DHT22;10089;47.876;8.346;2023-07-22T13:19:45;23.60;1.00
9699;DHT22;10089;47.876;8.346;2023-07-22T13:22:11;23.20;1.00
9699;DHT22;10089;47.876;8.346;2023-07-22T13:24:36;23.20;1.00
9699;DHT22;10089;47.876;8.346;2023-07-22T13:27:03;23.90;1.00
9699;DHT22;10089;47.876;8.346;2023-07-22T13:29:30;24.10;1.00
9699;DHT22;10089;47.876;8.346;2023-07-22T13:31:56;24.20;1.00
9699;DHT22;10089;47.876;8.346;2023-07-22T13:34:21;24.70;1.00
9699;DHT22;10089;47.876;8.346;2023-07-22T13:36:47;24.00;1.00
9699;DHT22;10089;47.876;8.346;2023-07-22T13:39:13;23.90;1.00
9699;DHT22;10089;47.876;8.346;2023-07-22T13:41:41;24.10;1.00
9699;DHT22;10089;47.876;8.346;2023-07-22T13:44:09;24.00;1.00
9699;DHT22;10089;47.876;8.346;2023-07-22T13:46:35;23.60;1.00
9699;DHT22;10089;47.876;8.346;2023-07-22T13:49:01;24.00;1.00
9699;DHT22;10089;47.876;8.346;2023-07-22T13:51:26;24.00;1.00
9699;DHT22;10089;47.876;8.346;2023-07-22T13:57:14;24.00;1.00
9699;DHT22;10089;47.876;8.346;2023-07-22T13:59:39;24.30;1.00
9699;DHT22;10089;47.876;8.346;2023-07-22T14:02:05;24.20;1.00
9699;DHT22;10089;47.876;8.346;2023-07-22T14:04:31;24.30;1.00
9699;DHT22;10089;47.876;8.346;2023-07-22T14:06:56;24.90;1.00
9699;DHT22;10089;47.876;8.346;2023-07-22T14:09:22;24.60;1.00
9699;DHT22;10089;47.876;8.346;2023-07-22T14:11:47;24.10;1.00
9699;DHT22;10089;47.876;8.346;2023-07-22T14:14:13;24.10;1.00
9699;DHT22;10089;47.876;8.346;2023-07-22T14:16:39;23.80;1.00
9699;DHT22;10089;47.876;8.346;2023-07-22T14:19:04;22.90;1.00
9699;DHT22;10089;47.876;8.346;2023-07-22T14:21:30;22.40;1.00
9699;DHT22;10089;47.876;8.346;2023-07-22T14:23:55;22.60;1.00
9699;DHT22;10089;47.876;8.346;2023-07-22T14:26:21;22.80;1.00
9699;DHT22;10089;47.876;8.346;2023-07-22T14:28:46;23.00;1.00
9699;DHT22;10089;47.876;8.346;2023-07-22T14:31:12;23.40;1.00
9699;DHT22;10089;47.876;8.346;2023-07-22T14:33:37;23.80;1.00
9699;DHT22;10089;47.876;8.346;2023-07-22T14:36:03;24.10;1.00
9699;DHT22;10089;47.876;8.346;2023-07-22T14:38:29;24.10;1.00
9699;DHT22;10089;47.876;8.346;2023-07-22T14:40:54;24.00;1.00
9699;DHT22;10089;47.876;8.346;2023-07-22T14:43:20;24.00;1.00
9699;DHT22;10089;47.876;8.346;2023-07-22T14:45:45;24.10;1.00
9699;DHT22;10089;47.876;8.346;2023-07-22T14:48:11;24.10;1.00
9699;DHT22;10089;47.876;8.346;2023-07-22T14:50:37;24.20;1.00
9699;DHT22;10089;47.876;8.346;2023-07-22T14:53:02;24.20;1.00
9699;DHT22;10089;47.876;8.346;2023-07-22T14:55:28;23.70;1.00
9699;DHT22;10089;47.876;8.346;2023-07-22T14:57:54;23.70;1.00
9699;DHT22;10089;47.876;8.346;2023-07-22T15:00:19;23.80;1.00
9699;DHT22;10089;47.876;8.346;2023-07-22T15:02:45;23.90;1.00
9699;DHT22;10089;47.876;8.346;2023-07-22T15:05:11;24.00;1.00
9699;DHT22;10089;47.876;8.346;2023-07-22T15:07:36;23.90;1.00
9699;DHT22;10089;47.876;8.346;2023-07-22T15:10:03;23.90;1.00
9699;DHT22;10089;47.876;8.346;2023-07-22T15:12:29;23.60;1.00
9699;DHT22;10089;47.876;8.346;2023-07-22T15:14:54;23.30;1.00
9699;DHT22;10089;47.876;8.346;2023-07-22T15:17:20;23.30;1.00
9699;DHT22;10089;47.876;8.346;2023-07-22T15:19:45;23.30;1.00
9699;DHT22;10089;47.876;8.346;2023-07-22T15:22:11;23.10;1.00
9699;DHT22;10089;47.876;8.346;2023-07-22T15:24:38;23.40;1.00
9699;DHT22;10089;47.876;8.346;2023-07-22T15:27:03;23.60;1.00
9699;DHT22;10089;47.876;8.346;2023-07-22T15:29:29;23.60;1.00
9699;DHT22;10089;47.876;8.346;2023-07-22T15:31:54;23.30;1.00
9699;DHT22;10089;47.876;8.346;2023-07-22T15:34:20;23.10;1.00
9699;DHT22;10089;47.876;8.346;2023-07-22T15:36:46;23.00;1.00
9699;DHT22;10089;47.876;8.346;2023-07-22T15:39:11;23.00;1.00
9699;DHT22;10089;47.876;8.346;2023-07-22T15:41:37;23.00;1.00
9699;DHT22;10089;47.876;8.346;2023-07-22T15:44:02;23.00;1.00
9699;DHT22;10089;47.876;8.346;2023-07-22T15:46:28;22.90;1.00
9699;DHT22;10089;47.876;8.346;2023-07-22T15:48:53;22.70;1.00
9699;DHT22;10089;47.876;8.346;2023-07-22T15:51:20;23.00;1.00
9699;DHT22;10089;47.876;8.346;2023-07-22T15:53:45;22.90;1.00
9699;DHT22;10089;47.876;8.346;2023-07-22T15:56:11;22.90;1.00
9699;DHT22;10089;47.876;8.346;2023-07-22T15:58:36;23.10;1.00
9699;DHT22;10089;47.876;8.346;2023-07-22T16:01:02;23.10;1.00
9699;DHT22;10089;47.876;8.346;2023-07-22T16:03:28;23.10;1.00
9699;DHT22;10089;47.876;8.346;2023-07-22T16:05:53;23.10;1.00
9699;DHT22;10089;47.876;8.346;2023-07-22T16:08:19;22.90;1.00
9699;DHT22;10089;47.876;8.346;2023-07-22T16:10:45;22.90;1.00
9699;DHT22;10089;47.876;8.346;2023-07-22T16:13:10;23.00;1.00